Alpena, AR

9:08 AM CST on March 01, 2015 (GMT -0600)
APRSWXNET Capps AR US | Change Station
CLOSE
Current Station
Personal Weather Station
Location: Harrison, AR
Elevation: 1479 ft
Nearby Weather Stations

Elev 1479 ft 36.24 °N, 93.20 °W | Updated 35 minutes ago

Fog
Fog
30 °F
Feels Like 30 °F
N
3
Wind Variable Wind from South
Gusts 4.0 mph

Today
High -- | Low -- °F
--% Chance of Precip.
Yesterday
High -- | Low -- °F
Precip. -- in
6:43 AM 6:07 PM
Waxing Gibbous, 85% visible
Pressure 30.35 in
Visibility 1.5 miles
Clouds Overcast 300 ft
Windchill 30 °F
Dew Point 29 °F
Humidity 97%
Rainfall 0.00 in
Snow Depth Not available.
UV 1 out of 12
Pollen .60 out of 12
Air Quality Not available.
Flu Activity Not available.
SPECI KHRO 011505Z AUTO 33005KT 1 1/2SM BR OVC003 M01/M01 A3035 RMK AO2 T10061011

More Conditions Fewer Conditions

Pressure 30.35 in
Visibility 1.5 miles
Clouds Overcast 300 ft
Windchill 30 °F
Dew Point 29 °F
Humidity 97%
Rainfall 0.00 in
Snow Depth Not available.
UV 1 out of 12
Pollen .60 out of 12
Air Quality Not available.
Flu Activity Not available.
SPECI KHRO 011505Z AUTO 33005KT 1 1/2SM BR OVC003 M01/M01 A3035 RMK AO2 T10061011

More Conditions Fewer Conditions

10-Day Weather Forecast

Almanac

Astronomy

Mar. 01, 2015 Rise Set
Actual Time
Civil Twilight
Nautical Twilight
Astronomical Twilight
Moon
Length of Visible Light
Length of Day
Tomorrow will be .
, % of the Moon is Illuminated

Today's Extremes

State Highs State Lows

Community

WunderPhotos

Upload Photos

1,801,406 photos uploaded!

WunderBlogs® & News

Nearby

Air Quality

  Air Quality AQ Index Pollutant
Not available.

Snow Depth

Station Depth Elevation

Earthquake Activity

City Distance Mag. Time & Date
Minimum magnitude displayed is 2.5.

Coastal Water Temperatures

Place Temperature

Nearby Weather Stations